createdAt,value
2018-07-20T00:01:08.296Z,99.90
2018-07-20T00:03:36.736Z,99.90
2018-07-20T00:06:05.578Z,99.90
2018-07-20T00:08:34.047Z,99.90
2018-07-20T00:11:02.508Z,99.90
2018-07-20T00:13:30.977Z,99.90
2018-07-20T00:15:59.451Z,99.90
2018-07-20T00:18:27.979Z,99.90
2018-07-20T00:20:56.415Z,99.90
2018-07-20T00:23:24.875Z,99.90
2018-07-20T00:25:53.326Z,99.90
2018-07-20T00:28:21.731Z,99.90
2018-07-20T00:30:50.321Z,99.90
2018-07-20T00:33:18.772Z,99.90
2018-07-20T00:35:47.275Z,99.90
2018-07-20T00:38:15.817Z,99.90
2018-07-20T00:40:44.611Z,99.90
2018-07-20T00:43:13.098Z,99.90
2018-07-20T00:45:41.541Z,99.90
2018-07-20T00:48:10.013Z,99.90
2018-07-20T00:50:38.480Z,99.90
2018-07-20T00:53:07.310Z,99.90
2018-07-20T00:55:35.790Z,99.90
2018-07-20T00:58:04.630Z,99.90
2018-07-20T01:00:33.055Z,99.90
2018-07-20T01:03:01.520Z,99.90
2018-07-20T01:05:29.944Z,99.90
2018-07-20T01:07:58.625Z,99.90
2018-07-20T01:10:27.081Z,99.90
2018-07-20T01:12:55.605Z,99.90
2018-07-20T01:15:24.070Z,99.90
2018-07-20T01:17:52.500Z,99.90
2018-07-20T01:20:21.012Z,99.90
2018-07-20T01:22:49.504Z,99.90
2018-07-20T01:25:17.929Z,99.90
2018-07-20T01:27:46.359Z,99.90
2018-07-20T01:30:14.779Z,99.90
2018-07-20T01:32:43.263Z,99.90
2018-07-20T01:35:11.724Z,99.90
2018-07-20T01:37:40.219Z,99.90
2018-07-20T01:40:08.654Z,99.90
2018-07-20T01:42:37.155Z,99.90
2018-07-20T01:45:05.629Z,99.90
2018-07-20T01:47:34.039Z,99.90
2018-07-20T01:50:02.513Z,99.90
2018-07-20T01:52:30.964Z,99.90
2018-07-20T01:54:59.398Z,99.90
2018-07-20T01:57:27.893Z,99.90
2018-07-20T01:59:56.298Z,99.90
2018-07-20T02:02:24.841Z,99.90
2018-07-20T02:04:53.319Z,99.90
2018-07-20T02:07:21.743Z,99.90
2018-07-20T02:09:50.225Z,99.90
2018-07-20T02:12:18.688Z,99.90
2018-07-20T02:14:47.139Z,99.90
2018-07-20T02:17:15.617Z,99.90
2018-07-20T02:19:44.062Z,99.90
2018-07-20T02:22:12.527Z,99.90
2018-07-20T02:24:41.367Z,99.90
2018-07-20T02:27:09.821Z,99.90
2018-07-20T02:29:38.228Z,99.90
2018-07-20T02:32:07.392Z,99.90
2018-07-20T02:34:35.873Z,99.90
2018-07-20T02:37:04.306Z,99.90
2018-07-20T02:39:32.831Z,99.90
2018-07-20T02:42:01.268Z,99.90
2018-07-20T02:44:29.731Z,99.90
2018-07-20T02:46:58.202Z,99.90
2018-07-20T02:49:26.638Z,99.90
2018-07-20T02:51:55.068Z,99.90
2018-07-20T02:54:23.581Z,99.90
2018-07-20T02:56:52.045Z,99.90
2018-07-20T02:59:20.556Z,99.90
2018-07-20T03:01:48.976Z,99.90
2018-07-20T03:04:17.480Z,99.90
2018-07-20T03:06:45.920Z,99.90
2018-07-20T03:09:14.564Z,99.90
2018-07-20T03:11:43.850Z,99.90
2018-07-20T03:14:12.291Z,99.90
2018-07-20T03:16:40.756Z,99.90
2018-07-20T03:19:09.500Z,99.90
2018-07-20T03:21:37.965Z,99.90
2018-07-20T03:24:06.527Z,99.90
2018-07-20T03:26:34.960Z,99.90
2018-07-20T03:29:03.419Z,99.90
2018-07-20T03:31:31.862Z,99.90
2018-07-20T03:34:00.276Z,99.90
2018-07-20T03:36:28.754Z,99.90
2018-07-20T03:38:57.219Z,99.90
2018-07-20T03:41:25.689Z,99.90
2018-07-20T03:43:54.123Z,99.90
2018-07-20T03:46:22.602Z,99.90
2018-07-20T03:48:51.048Z,99.90
2018-07-20T03:51:19.511Z,99.90
2018-07-20T03:53:48.472Z,99.90
2018-07-20T03:56:17.081Z,99.90
2018-07-20T03:58:45.551Z,99.90
2018-07-20T04:01:13.992Z,99.90
2018-07-20T04:03:42.637Z,99.90
2018-07-20T04:06:11.111Z,99.90
2018-07-20T04:08:39.656Z,99.90
2018-07-20T04:11:08.196Z,99.90
2018-07-20T04:13:36.717Z,99.90
2018-07-20T04:16:05.167Z,99.90
2018-07-20T04:18:33.690Z,99.90
2018-07-20T04:21:02.145Z,99.90
2018-07-20T04:23:30.591Z,99.90
2018-07-20T04:25:59.074Z,99.90
2018-07-20T04:28:27.536Z,99.90
2018-07-20T04:30:56.322Z,99.90
2018-07-20T04:33:24.839Z,99.90
2018-07-20T04:35:53.288Z,99.90
2018-07-20T04:38:21.743Z,99.90
2018-07-20T04:40:50.158Z,99.90
2018-07-20T04:43:18.652Z,99.90
2018-07-20T04:45:47.088Z,99.90
2018-07-20T04:48:15.522Z,99.90
2018-07-20T04:50:43.991Z,99.90
2018-07-20T04:53:12.407Z,99.90
2018-07-20T04:55:40.887Z,99.90
2018-07-20T04:58:09.327Z,99.90
2018-07-20T05:00:37.801Z,99.90
2018-07-20T05:03:06.687Z,99.90
2018-07-20T05:05:35.137Z,99.90
2018-07-20T05:08:03.595Z,99.90
2018-07-20T05:10:35.027Z,99.90
2018-07-20T05:13:03.470Z,99.90
2018-07-20T05:15:31.935Z,99.90
2018-07-20T05:18:00.384Z,99.90
2018-07-20T05:20:29.063Z,99.90
2018-07-20T05:22:57.514Z,99.90
2018-07-20T05:25:25.988Z,99.90
2018-07-20T05:27:54.521Z,99.90
2018-07-20T05:30:23.128Z,99.90
2018-07-20T05:32:51.579Z,99.90
2018-07-20T05:35:20.018Z,99.90
2018-07-20T05:37:48.539Z,99.90
2018-07-20T05:40:17.109Z,99.90
2018-07-20T05:42:45.562Z,99.90
2018-07-20T05:45:14.196Z,99.90
2018-07-20T05:47:43.013Z,99.90
2018-07-20T05:50:11.492Z,99.90
2018-07-20T05:52:39.935Z,99.90
2018-07-20T05:55:08.433Z,99.90
2018-07-20T05:57:36.939Z,99.90
2018-07-20T06:00:05.672Z,99.90
2018-07-20T06:02:34.132Z,99.90
2018-07-20T06:05:02.573Z,99.90
2018-07-20T06:07:31.201Z,99.90
2018-07-20T06:09:59.680Z,99.90
2018-07-20T06:12:28.205Z,99.90
2018-07-20T06:14:56.637Z,99.90
2018-07-20T06:17:25.106Z,99.90
2018-07-20T06:19:53.582Z,99.90
2018-07-20T06:22:22.215Z,99.90
2018-07-20T06:24:50.708Z,99.90
2018-07-20T06:27:19.155Z,99.90
2018-07-20T06:29:47.620Z,99.90
2018-07-20T06:32:16.045Z,99.50
2018-07-20T06:34:44.458Z,98.80
2018-07-20T06:37:12.926Z,98.80
2018-07-20T06:39:41.358Z,98.10
2018-07-20T06:42:09.823Z,97.70
2018-07-20T06:44:38.247Z,97.20
2018-07-20T06:47:06.760Z,96.00
2018-07-20T06:49:35.193Z,97.20
2018-07-20T06:52:08.620Z,97.50
2018-07-20T06:54:37.060Z,96.50
2018-07-20T06:57:05.623Z,96.10
2018-07-20T06:59:34.075Z,96.50
2018-07-20T07:02:02.543Z,96.60
2018-07-20T07:04:31.039Z,96.10
2018-07-20T07:06:59.576Z,95.70
2018-07-20T07:09:28.060Z,96.00
2018-07-20T07:11:56.667Z,95.90
2018-07-20T07:14:25.103Z,95.30
2018-07-20T07:16:53.567Z,94.10
2018-07-20T07:19:22.053Z,94.00
2018-07-20T07:21:50.669Z,94.30
2018-07-20T07:24:19.357Z,94.00
2018-07-20T07:26:47.794Z,93.30
2018-07-20T07:29:16.264Z,92.90
2018-07-20T07:31:45.271Z,92.90
2018-07-20T07:34:14.140Z,93.50
2018-07-20T07:36:42.597Z,92.80
2018-07-20T07:39:12.255Z,94.20
2018-07-20T07:41:40.893Z,93.20
2018-07-20T07:44:09.379Z,92.40
2018-07-20T07:46:37.911Z,91.50
2018-07-20T07:49:06.805Z,90.60
2018-07-20T07:51:35.255Z,90.90
2018-07-20T07:54:03.705Z,91.50
2018-07-20T07:56:32.199Z,90.80
2018-07-20T07:59:00.655Z,90.60
2018-07-20T08:01:32.024Z,90.80
2018-07-20T08:04:00.645Z,90.80
2018-07-20T08:06:29.134Z,90.10
2018-07-20T08:08:57.768Z,87.90
2018-07-20T08:11:26.204Z,84.90
2018-07-20T08:13:54.664Z,86.80
2018-07-20T08:16:23.158Z,83.20
2018-07-20T08:18:51.578Z,87.30
2018-07-20T08:21:20.064Z,87.50
2018-07-20T08:23:48.494Z,85.90
2018-07-20T08:26:17.019Z,84.20
2018-07-20T08:28:45.453Z,84.30
2018-07-20T08:31:14.269Z,86.70
2018-07-20T08:33:42.758Z,89.60
2018-07-20T08:36:11.388Z,86.10
2018-07-20T08:38:40.033Z,85.70
2018-07-20T08:41:08.472Z,84.70
2018-07-20T08:43:37.157Z,83.90
2018-07-20T08:46:05.652Z,84.20
2018-07-20T08:48:34.122Z,86.40
2018-07-20T08:51:02.588Z,85.30
2018-07-20T08:53:31.137Z,83.40
2018-07-20T08:55:59.547Z,84.20
2018-07-20T08:58:28.324Z,84.20
2018-07-20T09:00:56.762Z,85.00
2018-07-20T09:03:25.292Z,85.20
2018-07-20T09:05:54.292Z,85.10
2018-07-20T09:08:22.752Z,84.20
2018-07-20T09:10:51.749Z,83.70
2018-07-20T09:13:20.191Z,83.50
2018-07-20T09:15:48.780Z,81.30
2018-07-20T09:18:17.250Z,83.60
2018-07-20T09:23:14.280Z,83.90
2018-07-20T09:25:42.868Z,85.70
2018-07-20T09:28:11.435Z,83.90
2018-07-20T09:30:40.082Z,82.50
2018-07-20T09:33:08.870Z,80.60
2018-07-20T09:35:37.327Z,80.40
2018-07-20T09:38:05.799Z,79.40
2018-07-20T09:40:34.279Z,80.40
2018-07-20T09:43:02.729Z,78.80
2018-07-20T09:45:31.179Z,81.90
2018-07-20T09:47:59.625Z,79.90
2018-07-20T09:50:28.169Z,80.40
2018-07-20T09:52:56.664Z,81.00
2018-07-20T09:55:25.121Z,83.10
2018-07-20T09:57:53.613Z,83.90
2018-07-20T10:00:27.407Z,82.00
2018-07-20T10:02:55.899Z,80.70
2018-07-20T10:05:24.344Z,81.70
2018-07-20T10:07:52.813Z,79.60
2018-07-20T10:10:21.298Z,78.70
2018-07-20T10:12:50.584Z,80.40
2018-07-20T10:15:19.118Z,82.50
2018-07-20T10:17:48.063Z,81.20
2018-07-20T10:20:16.579Z,80.30
2018-07-20T10:22:44.982Z,80.50
2018-07-20T10:25:13.427Z,80.00
2018-07-20T10:30:10.693Z,79.90
2018-07-20T10:32:39.127Z,80.70
2018-07-20T10:35:07.549Z,80.10
2018-07-20T10:37:35.967Z,79.50
2018-07-20T10:40:04.502Z,79.90
2018-07-20T10:42:33.042Z,79.00
2018-07-20T10:45:01.462Z,80.40
2018-07-20T10:47:30.167Z,79.80
2018-07-20T10:49:58.622Z,80.00
2018-07-20T10:52:27.158Z,83.60
2018-07-20T10:54:55.606Z,80.50
2018-07-20T10:57:24.070Z,80.00
2018-07-20T10:59:52.527Z,80.80
2018-07-20T11:02:20.973Z,80.00
2018-07-20T11:04:49.435Z,81.30
2018-07-20T11:07:17.900Z,81.60
2018-07-20T11:09:46.380Z,82.50
2018-07-20T11:12:14.815Z,81.70
2018-07-20T11:14:43.251Z,80.30
2018-07-20T11:17:12.048Z,77.70
2018-07-20T11:19:40.454Z,77.00
2018-07-20T11:22:09.278Z,75.40
2018-07-20T11:24:37.805Z,76.10
2018-07-20T11:27:06.599Z,74.10
2018-07-20T11:29:35.103Z,73.40
2018-07-20T11:32:03.933Z,76.10
2018-07-20T11:34:32.368Z,75.60
2018-07-20T11:37:00.861Z,74.90
2018-07-20T11:39:29.294Z,74.80
2018-07-20T11:41:57.768Z,71.90
2018-07-20T11:44:26.387Z,71.20
2018-07-20T11:46:55.189Z,70.20
2018-07-20T11:49:23.618Z,71.00
2018-07-20T11:51:52.084Z,72.50
2018-07-20T11:54:20.622Z,71.60
2018-07-20T11:56:49.087Z,71.90
2018-07-20T11:59:17.541Z,72.60
2018-07-20T12:01:46.033Z,70.80
2018-07-20T12:04:14.672Z,68.50
2018-07-20T12:06:43.141Z,70.30
2018-07-20T12:09:12.491Z,70.50
2018-07-20T12:11:41.556Z,69.90
2018-07-20T12:14:10.006Z,70.30
2018-07-20T12:16:38.731Z,70.50
2018-07-20T12:19:07.185Z,69.10
2018-07-20T12:21:35.687Z,68.30
2018-07-20T12:24:04.151Z,70.50
2018-07-20T12:26:32.571Z,68.10
2018-07-20T12:29:01.110Z,69.50
2018-07-20T12:31:29.635Z,70.20
2018-07-20T12:33:58.459Z,69.90
2018-07-20T12:36:27.336Z,69.00
2018-07-20T12:38:55.795Z,67.70
2018-07-20T12:41:24.312Z,68.30
2018-07-20T12:43:52.808Z,68.00
2018-07-20T12:46:21.249Z,71.10
2018-07-20T12:48:49.714Z,70.00
2018-07-20T12:51:18.546Z,71.10
2018-07-20T12:53:47.014Z,68.80
2018-07-20T12:56:15.491Z,69.40
2018-07-20T12:58:44.045Z,69.00
2018-07-20T13:01:12.723Z,68.70
2018-07-20T13:03:41.208Z,69.50
2018-07-20T13:06:09.643Z,68.20
2018-07-20T13:08:38.156Z,69.40
2018-07-20T13:11:06.738Z,67.20
2018-07-20T13:13:35.222Z,64.30
2018-07-20T13:16:03.696Z,65.20
2018-07-20T13:18:32.199Z,65.60
2018-07-20T13:21:00.846Z,67.10
2018-07-20T13:23:29.305Z,68.10
2018-07-20T13:25:57.785Z,68.00
2018-07-20T13:28:26.231Z,67.70
2018-07-20T13:30:54.710Z,66.10
2018-07-20T13:33:23.144Z,67.30
2018-07-20T13:35:51.597Z,68.20
2018-07-20T13:38:20.036Z,69.80
2018-07-20T13:40:48.600Z,68.70
2018-07-20T13:43:17.037Z,69.20
2018-07-20T13:45:45.475Z,67.10
2018-07-20T13:48:14.277Z,68.40
2018-07-20T13:50:43.147Z,66.90
2018-07-20T13:53:11.594Z,66.00
2018-07-20T13:55:40.249Z,66.30
2018-07-20T13:58:08.711Z,67.70
2018-07-20T14:00:37.148Z,67.80
2018-07-20T14:03:05.606Z,67.40
2018-07-20T14:05:34.026Z,68.00
2018-07-20T14:08:02.490Z,68.50
2018-07-20T14:10:31.000Z,67.60
2018-07-20T14:12:59.395Z,67.10
2018-07-20T14:15:27.875Z,66.70
2018-07-20T14:17:56.356Z,66.50
2018-07-20T14:20:25.595Z,66.30
2018-07-20T14:22:54.082Z,66.50
2018-07-20T14:25:22.554Z,67.10
2018-07-20T14:27:51.003Z,67.40
2018-07-20T14:30:19.821Z,67.90
2018-07-20T14:32:48.348Z,68.40
2018-07-20T14:35:16.804Z,67.00
2018-07-20T14:37:45.301Z,67.90
2018-07-20T14:40:13.779Z,69.10
2018-07-20T14:42:44.292Z,67.10
2018-07-20T14:45:12.778Z,67.20
2018-07-20T14:47:41.201Z,69.10
2018-07-20T14:50:09.678Z,68.60
2018-07-20T14:52:38.109Z,68.00
2018-07-20T14:55:06.568Z,68.10
2018-07-20T14:57:35.062Z,68.40
2018-07-20T15:00:03.633Z,67.80
2018-07-20T15:02:32.098Z,68.30
2018-07-20T15:05:00.542Z,68.70
2018-07-20T15:07:28.998Z,68.40
2018-07-20T15:09:57.388Z,67.90
2018-07-20T15:12:25.899Z,68.40
2018-07-20T15:14:54.401Z,67.70
2018-07-20T15:17:22.836Z,68.50
2018-07-20T15:19:51.316Z,69.30
2018-07-20T15:22:19.774Z,68.70
2018-07-20T15:24:48.231Z,68.00
2018-07-20T15:27:16.711Z,67.80
2018-07-20T15:29:45.209Z,68.40
2018-07-20T15:32:13.865Z,67.20
2018-07-20T15:34:42.297Z,67.10
2018-07-20T15:37:10.959Z,66.90
2018-07-20T15:39:39.446Z,67.30
2018-07-20T15:42:08.634Z,66.70
2018-07-20T15:44:37.122Z,66.50
2018-07-20T15:47:05.989Z,66.80
2018-07-20T15:49:34.629Z,67.20
2018-07-20T15:54:31.584Z,66.20
2018-07-20T15:57:00.229Z,67.40
2018-07-20T15:59:28.769Z,66.70
2018-07-20T16:01:58.039Z,66.80
2018-07-20T16:04:26.554Z,71.00
2018-07-20T16:06:54.990Z,82.20
2018-07-20T16:09:23.420Z,86.20
2018-07-20T16:11:51.861Z,91.40
2018-07-20T16:14:20.443Z,93.10
2018-07-20T16:16:48.904Z,93.00
2018-07-20T16:19:17.404Z,96.70
2018-07-20T16:21:46.268Z,98.60
2018-07-20T16:24:14.754Z,99.90
2018-07-20T16:26:43.213Z,99.90
2018-07-20T16:29:11.713Z,99.90
2018-07-20T16:31:40.128Z,99.90
2018-07-20T16:34:08.585Z,99.90
2018-07-20T16:36:37.028Z,99.90
2018-07-20T16:39:08.006Z,99.90
2018-07-20T16:41:36.652Z,99.90
2018-07-20T16:44:05.093Z,99.90
2018-07-20T16:46:33.558Z,99.90
2018-07-20T16:49:02.043Z,99.90
2018-07-20T16:51:30.732Z,99.90
2018-07-20T16:53:59.153Z,99.90
2018-07-20T16:56:27.663Z,99.90
2018-07-20T16:58:56.176Z,99.90
2018-07-20T17:01:24.668Z,99.90
2018-07-20T17:03:53.428Z,99.90
2018-07-20T17:06:22.147Z,99.90
2018-07-20T17:08:50.567Z,99.90
2018-07-20T17:11:19.077Z,99.90
2018-07-20T17:13:47.892Z,99.90
2018-07-20T17:16:16.372Z,99.90
2018-07-20T17:18:44.825Z,99.90
2018-07-20T17:21:13.362Z,99.90
2018-07-20T17:23:41.843Z,99.90
2018-07-20T17:26:10.277Z,99.90
2018-07-20T17:28:38.723Z,99.90
2018-07-20T17:31:07.507Z,99.90
2018-07-20T17:33:36.004Z,99.90
2018-07-20T17:36:04.612Z,99.90
2018-07-20T17:38:33.114Z,99.90
2018-07-20T17:41:01.596Z,99.90
2018-07-20T17:43:30.012Z,99.90
2018-07-20T17:45:58.502Z,99.90
2018-07-20T17:48:27.017Z,99.90
2018-07-20T17:50:55.626Z,99.90
2018-07-20T17:53:24.113Z,99.90
2018-07-20T17:55:52.676Z,99.90
2018-07-20T17:58:21.131Z,99.90
2018-07-20T18:00:49.680Z,99.90
2018-07-20T18:03:18.215Z,99.90
2018-07-20T18:05:46.660Z,99.90
2018-07-20T18:08:15.096Z,99.90
2018-07-20T18:10:43.615Z,99.90
2018-07-20T18:13:12.057Z,99.90
2018-07-20T18:15:40.550Z,99.90
2018-07-20T18:18:09.053Z,99.90
2018-07-20T18:20:38.007Z,99.90
2018-07-20T18:23:06.636Z,99.90
2018-07-20T18:25:35.174Z,99.90
2018-07-20T18:28:03.695Z,99.90
2018-07-20T18:30:32.129Z,99.90
2018-07-20T18:33:00.660Z,99.90
2018-07-20T18:35:29.120Z,99.90
2018-07-20T18:37:57.539Z,99.90
2018-07-20T18:40:26.159Z,99.90
2018-07-20T18:42:54.685Z,99.90
2018-07-20T18:45:23.347Z,99.90
2018-07-20T18:47:52.155Z,99.90
2018-07-20T18:50:20.786Z,99.90
2018-07-20T18:52:49.667Z,99.90
2018-07-20T18:55:18.102Z,99.90
2018-07-20T18:57:47.603Z,99.90
2018-07-20T19:00:16.116Z,99.90
2018-07-20T19:02:44.748Z,99.90
2018-07-20T19:05:13.338Z,99.90
2018-07-20T19:07:42.067Z,99.90
2018-07-20T19:10:10.647Z,99.90
2018-07-20T19:12:39.239Z,99.90
2018-07-20T19:15:07.850Z,99.90
2018-07-20T19:17:36.343Z,99.90
2018-07-20T19:20:05.157Z,99.90
2018-07-20T19:22:33.682Z,99.90
2018-07-20T19:25:02.292Z,99.90
2018-07-20T19:27:30.808Z,99.90
2018-07-20T19:29:59.362Z,99.90
2018-07-20T19:32:27.853Z,99.90
2018-07-20T19:34:56.308Z,99.90
2018-07-20T19:37:25.162Z,99.90
2018-07-20T19:39:53.648Z,99.90
2018-07-20T19:42:22.072Z,99.90
2018-07-20T19:44:50.596Z,99.90
2018-07-20T19:47:19.081Z,99.90
2018-07-20T19:49:47.652Z,99.90
2018-07-20T19:52:16.126Z,99.90
2018-07-20T19:54:44.831Z,99.90
2018-07-20T19:57:13.288Z,99.90
2018-07-20T19:59:41.747Z,99.90
2018-07-20T20:02:10.352Z,99.90
2018-07-20T20:04:38.862Z,99.90
2018-07-20T20:07:07.506Z,99.90
2018-07-20T20:09:36.107Z,99.90
2018-07-20T20:12:04.947Z,99.90
2018-07-20T20:14:33.426Z,99.90
2018-07-20T20:17:01.923Z,99.90
2018-07-20T20:19:30.597Z,99.90
2018-07-20T20:21:59.177Z,99.90
2018-07-20T20:24:27.656Z,99.90
2018-07-20T20:26:58.913Z,99.90
2018-07-20T20:29:28.977Z,99.90
2018-07-20T20:31:58.529Z,99.30
2018-07-20T20:34:27.041Z,99.40
2018-07-20T20:36:55.516Z,99.00
2018-07-20T20:39:23.972Z,98.40
2018-07-20T20:41:52.493Z,98.20
2018-07-20T20:44:22.603Z,97.80
2018-07-20T20:46:51.104Z,99.00
2018-07-20T20:49:19.585Z,98.20
2018-07-20T20:51:48.260Z,99.30
2018-07-20T20:54:17.048Z,98.10
2018-07-20T20:56:45.542Z,99.00
2018-07-20T20:59:14.044Z,98.30
2018-07-20T21:01:42.669Z,98.60
2018-07-20T21:04:11.161Z,98.50
2018-07-20T21:06:39.807Z,98.00
2018-07-20T21:09:08.962Z,97.60
2018-07-20T21:11:37.757Z,98.00
2018-07-20T21:14:07.558Z,98.70
2018-07-20T21:16:37.031Z,98.70
2018-07-20T21:19:06.295Z,99.60
2018-07-20T21:21:35.821Z,99.90
2018-07-20T21:24:05.411Z,99.90
2018-07-20T21:26:34.639Z,99.90
2018-07-20T21:29:03.475Z,99.90
2018-07-20T21:31:31.989Z,99.90
2018-07-20T21:34:01.170Z,99.90
2018-07-20T21:36:29.730Z,99.90
2018-07-20T21:38:58.999Z,99.90
2018-07-20T21:41:27.463Z,99.90
2018-07-20T21:43:56.438Z,99.90
2018-07-20T21:46:25.458Z,99.90
2018-07-20T21:48:54.030Z,99.90
2018-07-20T21:51:22.513Z,99.90
2018-07-20T21:53:51.007Z,99.90
2018-07-20T21:56:19.458Z,99.90
2018-07-20T21:58:48.686Z,99.90
2018-07-20T22:01:17.226Z,99.90
2018-07-20T22:03:45.770Z,99.90
2018-07-20T22:06:14.447Z,99.90
2018-07-20T22:08:42.938Z,99.90
2018-07-20T22:11:11.383Z,99.90
2018-07-20T22:13:39.864Z,99.90
2018-07-20T22:16:08.331Z,99.90
2018-07-20T22:18:36.836Z,99.90
2018-07-20T22:21:05.365Z,99.90
2018-07-20T22:23:33.845Z,99.90
2018-07-20T22:26:02.297Z,99.90
2018-07-20T22:28:30.761Z,99.90
2018-07-20T22:30:59.195Z,99.90
2018-07-20T22:33:27.645Z,99.90
2018-07-20T22:35:56.074Z,99.90
2018-07-20T22:38:24.554Z,99.90
2018-07-20T22:40:53.003Z,99.90
2018-07-20T22:43:21.653Z,99.90
2018-07-20T22:45:50.083Z,99.90
2018-07-20T22:48:18.609Z,99.90
2018-07-20T22:50:47.062Z,99.90
2018-07-20T22:53:15.619Z,99.90
2018-07-20T22:55:44.068Z,99.90
2018-07-20T22:58:12.586Z,99.90
2018-07-20T23:00:41.010Z,99.90
2018-07-20T23:03:09.471Z,99.90
2018-07-20T23:05:37.935Z,99.90
2018-07-20T23:08:06.435Z,99.90
2018-07-20T23:10:34.880Z,99.90
2018-07-20T23:13:03.374Z,99.90
2018-07-20T23:15:31.841Z,99.90
2018-07-20T23:18:00.281Z,99.90
2018-07-20T23:20:28.785Z,99.90
2018-07-20T23:22:57.279Z,99.90
2018-07-20T23:25:25.703Z,99.90
2018-07-20T23:27:54.158Z,99.90
2018-07-20T23:30:22.933Z,99.90
2018-07-20T23:32:51.363Z,99.90
2018-07-20T23:35:19.881Z,99.90
2018-07-20T23:37:48.324Z,99.90
2018-07-20T23:40:16.779Z,99.90
2018-07-20T23:42:45.214Z,99.90
2018-07-20T23:45:13.647Z,99.90
2018-07-20T23:47:42.127Z,99.90
2018-07-20T23:50:11.027Z,99.90
2018-07-20T23:52:39.547Z,99.90
2018-07-20T23:55:08.447Z,99.90
2018-07-20T23:57:36.976Z,99.90
